Time;durP1;ratioP1;P1;durP2;ratioP2;P2;SDS_P1;SDS_P2;PMS_P1;PMS_P2;Temp;Humidity;BMP_temperature;BMP_pressure;BME280_temperature;BME280_humidity;BME280_pressure;Samples;Min_cycle;Max_cycle;Signal;HPM_P1;HPM_P2
2023/09/13 00:01:37;;;;;;;18.70;17.00;;;;;;;;;;110179;269;41888;-36
2023/09/13 00:04:16;;;;;;;18.70;17.00;;;;;;;;;;110199;269;38502;-36
2023/09/13 00:06:51;;;;;;;18.50;17.00;;;;;;;;;;109951;269;326801;-36
2023/09/13 00:09:25;;;;;;;18.70;17.00;;;;;;;;;;110084;269;42816;-36
2023/09/13 00:12:00;;;;;;;19.10;17.50;;;;;;;;;;110188;269;41986;-36
2023/09/13 00:14:34;;;;;;;19.50;17.80;;;;;;;;;;110127;269;39746;-36
2023/09/13 00:17:08;;;;;;;19.60;17.80;;;;;;;;;;110182;269;39479;-36
2023/09/13 00:19:41;;;;;;;19.00;17.40;;;;;;;;;;109485;269;894443;-36
2023/09/13 00:22:15;;;;;;;18.60;17.00;;;;;;;;;;110138;269;41842;-35
2023/09/13 00:24:50;;;;;;;19.50;17.70;;;;;;;;;;110183;269;38818;-35
2023/09/13 00:27:24;;;;;;;18.70;17.00;;;;;;;;;;110221;269;39448;-35
2023/09/13 00:30:00;;;;;;;19.40;17.70;;;;;;;;;;110221;269;42465;-36
2023/09/13 00:32:33;;;;;;;19.50;17.80;;;;;;;;;;110171;269;43303;-36
2023/09/13 00:35:09;;;;;;;19.50;17.80;;;;;;;;;;110232;269;38430;-36
2023/09/13 00:37:43;;;;;;;19.70;18.00;;;;;;;;;;110240;269;39663;-35
2023/09/13 00:40:17;;;;;;;18.70;17.00;;;;;;;;;;110236;269;42462;-35
2023/09/13 00:42:51;;;;;;;19.40;17.60;;;;;;;;;;110140;269;42049;-35
2023/09/13 00:45:24;;;;;;;19.60;17.90;;;;;;;;;;110215;269;38583;-35
2023/09/13 00:47:58;;;;;;;19.80;18.00;;;;;;;;;;110193;269;40632;-36
2023/09/13 00:50:32;;;;;;;19.40;17.60;;;;;;;;;;110206;269;42683;-36
2023/09/13 00:53:25;;;;;;;20.30;18.50;;;;;;;;;;110182;269;47661;-36
2023/09/13 00:56:00;;;;;;;20.30;18.60;;;;;;;;;;110243;269;39852;-36
2023/09/13 00:58:35;;;;;;;20.90;19.10;;;;;;;;;;110236;269;40584;-36
2023/09/13 01:01:09;;;;;;;20.10;18.40;;;;;;;;;;110062;269;175434;-36
2023/09/13 01:03:44;;;;;;;20.50;18.70;;;;;;;;;;110156;269;49652;-36
2023/09/13 01:06:19;;;;;;;19.90;18.20;;;;;;;;;;110187;269;39781;-36
2023/09/13 01:08:52;;;;;;;20.40;18.60;;;;;;;;;;110193;269;39292;-36
2023/09/13 01:11:27;;;;;;;20.30;18.60;;;;;;;;;;110218;269;43913;-36
2023/09/13 01:14:01;;;;;;;21.40;19.50;;;;;;;;;;110286;269;47857;-36
2023/09/13 01:16:46;;;;;;;20.20;18.40;;;;;;;;;;110207;269;38636;-36
2023/09/13 01:19:47;;;;;;;20.60;18.90;;;;;;;;;;110196;269;39389;-36
2023/09/13 01:23:16;;;;;;;21.40;19.50;;;;;;;;;;110218;269;43818;-36
2023/09/13 01:26:25;;;;;;;20.60;18.80;;;;;;;;;;109810;269;175504;-36
2023/09/13 01:29:00;;;;;;;20.40;18.60;;;;;;;;;;110110;269;38466;-36
2023/09/13 01:31:40;;;;;;;20.60;18.80;;;;;;;;;;110219;269;39331;-36
2023/09/13 01:34:13;;;;;;;20.20;18.50;;;;;;;;;;110193;269;42690;-36
2023/09/13 01:36:49;;;;;;;20.80;19.00;;;;;;;;;;110099;269;175478;-36
2023/09/13 01:39:27;;;;;;;20.50;18.60;;;;;;;;;;110182;269;38634;-36
2023/09/13 01:42:14;;;;;;;20.50;18.70;;;;;;;;;;110078;269;175437;-36
2023/09/13 01:44:59;;;;;;;20.20;18.40;;;;;;;;;;110046;269;49105;-37
2023/09/13 01:47:49;;;;;;;20.20;18.50;;;;;;;;;;110161;269;42291;-36
2023/09/13 01:50:26;;;;;;;21.20;19.40;;;;;;;;;;110193;269;38581;-36
2023/09/13 01:52:59;;;;;;;20.20;18.50;;;;;;;;;;110167;269;39605;-36
2023/09/13 01:55:35;;;;;;;19.90;18.20;;;;;;;;;;110200;269;42508;-36
2023/09/13 01:58:24;;;;;;;20.40;18.70;;;;;;;;;;110246;269;42134;-36
2023/09/13 02:01:12;;;;;;;20.50;18.70;;;;;;;;;;110165;269;38538;-36
2023/09/13 02:03:45;;;;;;;21.10;19.30;;;;;;;;;;110173;269;39552;-37
2023/09/13 02:06:22;;;;;;;20.10;18.40;;;;;;;;;;110239;269;42671;-36
2023/09/13 02:08:56;;;;;;;20.40;18.60;;;;;;;;;;109894;269;41826;-36
2023/09/13 02:11:29;;;;;;;19.70;18.00;;;;;;;;;;110173;269;38525;-36
2023/09/13 02:14:03;;;;;;;21.20;19.30;;;;;;;;;;110162;269;39336;-36
2023/09/13 02:16:36;;;;;;;20.30;18.70;;;;;;;;;;110234;269;42456;-36
2023/09/13 02:19:12;;;;;;;20.30;18.50;;;;;;;;;;110192;269;42666;-36
2023/09/13 02:21:47;;;;;;;20.40;18.70;;;;;;;;;;110215;269;39760;-36
2023/09/13 02:24:23;;;;;;;19.80;18.10;;;;;;;;;;110180;269;40686;-36
2023/09/13 02:27:01;;;;;;;19.60;17.90;;;;;;;;;;110216;269;42489;-36
2023/09/13 02:29:35;;;;;;;20.50;18.60;;;;;;;;;;110231;269;41872;-36
2023/09/13 02:32:09;;;;;;;21.40;19.60;;;;;;;;;;110184;269;38436;-37
2023/09/13 02:34:45;;;;;;;21.20;19.40;;;;;;;;;;110162;269;39326;-36
2023/09/13 02:37:18;;;;;;;20.90;19.20;;;;;;;;;;110198;269;42625;-36
2023/09/13 02:39:52;;;;;;;21.00;19.20;;;;;;;;;;110246;269;41825;-36
2023/09/13 02:42:27;;;;;;;21.20;19.30;;;;;;;;;;109908;269;38459;-37
2023/09/13 02:45:02;;;;;;;21.30;19.50;;;;;;;;;;110203;269;39283;-36
2023/09/13 02:47:36;;;;;;;21.50;19.70;;;;;;;;;;110173;269;42548;-36
2023/09/13 02:50:13;;;;;;;21.10;19.20;;;;;;;;;;110195;269;41928;-36
2023/09/13 02:52:49;;;;;;;20.90;19.10;;;;;;;;;;110211;269;38697;-36
2023/09/13 02:55:25;;;;;;;21.30;19.50;;;;;;;;;;110185;269;39377;-36
2023/09/13 02:57:58;;;;;;;21.50;19.60;;;;;;;;;;110186;269;43828;-36
2023/09/13 03:00:32;;;;;;;21.50;19.60;;;;;;;;;;110182;269;43270;-36
2023/09/13 03:03:06;;;;;;;21.80;19.80;;;;;;;;;;110189;269;38494;-36
2023/09/13 03:05:43;;;;;;;22.00;20.00;;;;;;;;;;110166;269;39342;-36
2023/09/13 03:08:16;;;;;;;21.80;19.80;;;;;;;;;;110226;269;43857;-35
2023/09/13 03:10:50;;;;;;;23.00;20.90;;;;;;;;;;110219;269;41838;-36
2023/09/13 03:13:23;;;;;;;22.20;20.20;;;;;;;;;;110217;269;38709;-36
2023/09/13 03:15:57;;;;;;;22.70;20.60;;;;;;;;;;110131;269;40769;-36
2023/09/13 03:18:30;;;;;;;22.20;20.30;;;;;;;;;;110212;269;42481;-36
2023/09/13 03:21:09;;;;;;;21.80;19.90;;;;;;;;;;110209;269;42050;-36
2023/09/13 03:23:47;;;;;;;21.90;19.90;;;;;;;;;;110224;269;39814;-36
2023/09/13 03:26:22;;;;;;;22.80;20.70;;;;;;;;;;110171;269;39534;-36
2023/09/13 03:28:58;;;;;;;21.80;20.00;;;;;;;;;;109835;269;42459;-37
2023/09/13 03:31:32;;;;;;;22.40;20.40;;;;;;;;;;110200;269;41830;-36
2023/09/13 03:34:06;;;;;;;21.90;19.90;;;;;;;;;;109912;269;38449;-36
2023/09/13 03:36:40;;;;;;;22.70;20.80;;;;;;;;;;110179;269;39490;-36
2023/09/13 03:39:13;;;;;;;22.30;20.40;;;;;;;;;;110203;269;43939;-36
2023/09/13 03:41:46;;;;;;;22.00;20.00;;;;;;;;;;110207;269;42052;-36
2023/09/13 03:44:21;;;;;;;21.70;19.80;;;;;;;;;;110204;269;40008;-36
2023/09/13 03:46:55;;;;;;;22.20;20.20;;;;;;;;;;110163;269;39338;-36
2023/09/13 03:49:29;;;;;;;21.40;19.60;;;;;;;;;;110212;269;43748;-35
2023/09/13 03:52:03;;;;;;;22.80;20.90;;;;;;;;;;110201;269;41819;-36
2023/09/13 03:54:40;;;;;;;21.70;19.90;;;;;;;;;;110204;269;38869;-36
2023/09/13 03:57:15;;;;;;;21.90;19.90;;;;;;;;;;110150;269;39407;-36
2023/09/13 03:59:48;;;;;;;21.80;19.90;;;;;;;;;;110171;269;42723;-36
2023/09/13 04:02:22;;;;;;;21.60;19.80;;;;;;;;;;110217;269;43418;-36
2023/09/13 04:04:55;;;;;;;21.50;19.60;;;;;;;;;;110199;269;38490;-36
2023/09/13 04:07:29;;;;;;;21.80;19.90;;;;;;;;;;110079;269;40637;-36
2023/09/13 04:10:02;;;;;;;21.60;19.70;;;;;;;;;;110162;269;42470;-36
2023/09/13 04:12:36;;;;;;;22.10;20.20;;;;;;;;;;110254;269;41959;-36
2023/09/13 04:15:12;;;;;;;22.00;20.20;;;;;;;;;;110218;269;38468;-36
2023/09/13 04:17:47;;;;;;;21.70;19.90;;;;;;;;;;110279;269;39370;-36
2023/09/13 04:20:20;;;;;;;23.30;21.20;;;;;;;;;;110151;269;42767;-36
2023/09/13 04:22:54;;;;;;;22.40;20.50;;;;;;;;;;110124;269;42055;-36
2023/09/13 04:25:29;;;;;;;23.00;20.90;;;;;;;;;;110021;269;175489;-36
2023/09/13 04:28:05;;;;;;;22.80;20.90;;;;;;;;;;110152;269;45083;-36
2023/09/13 04:30:38;;;;;;;22.90;20.90;;;;;;;;;;109833;269;42593;-36
2023/09/13 04:33:12;;;;;;;22.50;20.50;;;;;;;;;;110154;269;41873;-36
2023/09/13 04:35:51;;;;;;;23.00;20.90;;;;;;;;;;110185;269;39770;-36
2023/09/13 04:38:25;;;;;;;22.40;20.50;;;;;;;;;;110169;269;45508;-36
2023/09/13 04:40:58;;;;;;;23.00;20.90;;;;;;;;;;110060;269;175516;-36
2023/09/13 04:43:32;;;;;;;23.30;21.00;;;;;;;;;;110174;269;41836;-36
2023/09/13 04:46:07;;;;;;;22.30;20.40;;;;;;;;;;110172;269;38476;-35
2023/09/13 04:48:42;;;;;;;22.30;20.40;;;;;;;;;;110173;269;46083;-35
2023/09/13 04:51:15;;;;;;;22.30;20.40;;;;;;;;;;110196;269;42450;-35
2023/09/13 04:53:48;;;;;;;22.00;20.10;;;;;;;;;;110185;269;41864;-35
2023/09/13 04:56:22;;;;;;;22.30;20.40;;;;;;;;;;110211;269;38638;-35
2023/09/13 04:58:56;;;;;;;21.90;20.00;;;;;;;;;;110212;269;45671;-35
2023/09/13 05:01:29;;;;;;;21.80;19.90;;;;;;;;;;109917;269;43977;-35
2023/09/13 05:04:04;;;;;;;22.00;20.20;;;;;;;;;;110216;269;41813;-35
2023/09/13 05:06:38;;;;;;;22.30;20.50;;;;;;;;;;109955;269;39735;-35
2023/09/13 05:09:11;;;;;;;22.50;20.70;;;;;;;;;;110142;269;45664;-36
2023/09/13 05:11:45;;;;;;;22.50;20.60;;;;;;;;;;110176;269;42693;-35
2023/09/13 05:14:19;;;;;;;22.30;20.30;;;;;;;;;;109918;269;41999;-35
2023/09/13 05:16:52;;;;;;;22.80;20.90;;;;;;;;;;110196;269;39734;-35
2023/09/13 05:19:26;;;;;;;23.40;21.20;;;;;;;;;;110157;269;45967;-35
2023/09/13 05:22:00;;;;;;;21.90;20.00;;;;;;;;;;110220;269;43903;-35
2023/09/13 05:24:36;;;;;;;22.40;20.40;;;;;;;;;;109869;269;41799;-35
2023/09/13 05:27:15;;;;;;;22.80;20.80;;;;;;;;;;110188;269;38518;-35
2023/09/13 05:29:48;;;;;;;22.50;20.50;;;;;;;;;;110179;269;46604;-35
2023/09/13 05:32:25;;;;;;;22.30;20.40;;;;;;;;;;110207;269;42467;-35
2023/09/13 05:35:01;;;;;;;23.30;21.30;;;;;;;;;;110249;269;42265;-35
2023/09/13 05:37:35;;;;;;;23.20;21.10;;;;;;;;;;110192;269;38680;-35
2023/09/13 05:40:17;;;;;;;23.70;21.70;;;;;;;;;;110196;269;45238;-35
2023/09/13 05:42:50;;;;;;;23.70;21.60;;;;;;;;;;109951;269;43825;-35
2023/09/13 05:45:24;;;;;;;22.90;20.90;;;;;;;;;;110210;269;42323;-35
2023/09/13 05:47:59;;;;;;;22.30;20.30;;;;;;;;;;110183;269;39810;-35
2023/09/13 05:50:33;;;;;;;22.90;21.00;;;;;;;;;;110199;269;45851;-36
2023/09/13 05:53:06;;;;;;;22.50;20.50;;;;;;;;;;110203;269;42515;-36
2023/09/13 05:55:39;;;;;;;23.00;21.00;;;;;;;;;;110239;269;41881;-36
2023/09/13 05:58:13;;;;;;;22.90;20.90;;;;;;;;;;110191;269;38459;-36
2023/09/13 06:00:50;;;;;;;23.60;21.50;;;;;;;;;;110186;269;45959;-36
2023/09/13 06:03:24;;;;;;;23.30;21.10;;;;;;;;;;109875;269;42755;-36
2023/09/13 06:06:04;;;;;;;23.60;21.50;;;;;;;;;;110163;269;42024;-36
2023/09/13 06:08:37;;;;;;;24.40;22.00;;;;;;;;;;110163;269;38709;-35
2023/09/13 06:11:15;;;;;;;23.60;21.50;;;;;;;;;;110174;269;39363;-36
2023/09/13 06:13:48;;;;;;;24.10;22.00;;;;;;;;;;110197;269;42550;-36
2023/09/13 06:16:22;;;;;;;23.40;21.20;;;;;;;;;;110214;269;42279;-36
2023/09/13 06:18:56;;;;;;;23.80;21.60;;;;;;;;;;110166;269;38476;-36
2023/09/13 06:21:29;;;;;;;24.10;22.00;;;;;;;;;;109879;269;39497;-36
2023/09/13 06:24:04;;;;;;;23.00;21.00;;;;;;;;;;110216;269;42757;-36
2023/09/13 06:26:37;;;;;;;24.10;21.80;;;;;;;;;;110270;269;41962;-36
2023/09/13 06:29:12;;;;;;;22.90;20.80;;;;;;;;;;110030;262;38786;-35
2023/09/13 06:31:47;;;;;;;22.10;20.10;;;;;;;;;;110081;269;40821;-32
2023/09/13 06:34:24;;;;;;;22.60;20.40;;;;;;;;;;110142;269;42707;-33
2023/09/13 06:37:02;;;;;;;22.30;20.20;;;;;;;;;;110111;269;42113;-34
2023/09/13 06:39:37;;;;;;;23.00;20.80;;;;;;;;;;109991;262;38483;-33
2023/09/13 06:42:12;;;;;;;22.30;20.20;;;;;;;;;;110063;269;39990;-34
2023/09/13 06:45:02;;;;;;;23.00;20.70;;;;;;;;;;110106;261;42471;-33
2023/09/13 06:47:56;;;;;;;21.30;19.20;;;;;;;;;;109971;266;43118;-33
2023/09/13 06:50:31;;;;;;;21.90;19.70;;;;;;;;;;110093;269;39946;-33
2023/09/13 06:53:24;;;;;;;21.90;19.90;;;;;;;;;;110074;261;40894;-34
2023/09/13 06:56:08;;;;;;;21.10;19.20;;;;;;;;;;110178;269;42876;-34
2023/09/13 06:58:47;;;;;;;21.80;19.80;;;;;;;;;;110116;269;42182;-34
2023/09/13 07:01:24;;;;;;;22.00;20.00;;;;;;;;;;109810;269;38727;-34
2023/09/13 07:04:18;;;;;;;21.60;19.50;;;;;;;;;;110075;262;39561;-34
2023/09/13 07:07:04;;;;;;;21.70;19.60;;;;;;;;;;110066;269;44224;-34
2023/09/13 07:09:41;;;;;;;21.60;19.50;;;;;;;;;;110126;269;42127;-34
2023/09/13 07:12:18;;;;;;;21.20;19.20;;;;;;;;;;110094;269;47055;-34
2023/09/13 07:14:53;;;;;;;21.20;19.40;;;;;;;;;;110164;261;39676;-34
2023/09/13 07:17:28;;;;;;;21.50;19.50;;;;;;;;;;109837;266;175456;-34
2023/09/13 07:20:04;;;;;;;20.70;18.90;;;;;;;;;;110085;261;42208;-34
2023/09/13 07:22:38;;;;;;;20.70;18.80;;;;;;;;;;110177;269;47290;-34
2023/09/13 07:25:15;;;;;;;20.60;18.70;;;;;;;;;;110078;262;39947;-34
2023/09/13 07:27:48;;;;;;;20.10;18.20;;;;;;;;;;110164;261;42694;-34
2023/09/13 07:30:23;;;;;;;19.30;17.50;;;;;;;;;;110071;269;42047;-35
2023/09/13 07:32:56;;;;;;;19.70;17.80;;;;;;;;;;110086;262;45830;-34
2023/09/13 07:35:31;;;;;;;19.90;18.00;;;;;;;;;;109936;269;40038;-34
2023/09/13 07:38:06;;;;;;;20.30;18.40;;;;;;;;;;110143;265;45200;-35
2023/09/13 07:40:42;;;;;;;19.80;17.90;;;;;;;;;;110118;269;41901;-35
2023/09/13 07:43:17;;;;;;;19.80;17.90;;;;;;;;;;109802;264;44840;-35
2023/09/13 07:45:51;;;;;;;19.20;17.30;;;;;;;;;;110138;269;39936;-35
2023/09/13 07:48:26;;;;;;;19.50;17.70;;;;;;;;;;110051;262;42864;-35
2023/09/13 07:51:04;;;;;;;18.80;17.10;;;;;;;;;;110140;269;42779;-35
2023/09/13 07:53:38;;;;;;;19.10;17.30;;;;;;;;;;110080;262;44822;-34
2023/09/13 07:56:14;;;;;;;18.00;16.20;;;;;;;;;;110104;269;40618;-35
2023/09/13 07:58:48;;;;;;;18.90;17.20;;;;;;;;;;110161;269;43936;-35
2023/09/13 08:01:21;;;;;;;17.80;16.20;;;;;;;;;;110015;262;42207;-35
2023/09/13 08:03:55;;;;;;;17.70;16.00;;;;;;;;;;110131;262;45098;-34
2023/09/13 08:06:28;;;;;;;18.20;16.50;;;;;;;;;;110034;262;127392;-34
2023/09/13 08:09:03;;;;;;;17.40;15.70;;;;;;;;;;110085;269;44224;-34
2023/09/13 08:11:38;;;;;;;17.30;15.80;;;;;;;;;;109929;269;42117;-34
2023/09/13 08:14:11;;;;;;;16.90;15.40;;;;;;;;;;110118;269;45058;-34
2023/09/13 08:16:45;;;;;;;17.40;15.70;;;;;;;;;;110169;269;39614;-34
2023/09/13 08:19:23;;;;;;;17.40;15.60;;;;;;;;;;110082;269;42949;-34
2023/09/13 08:21:56;;;;;;;16.90;15.30;;;;;;;;;;110085;262;42217;-35
2023/09/13 08:24:31;;;;;;;17.60;16.00;;;;;;;;;;110124;265;44999;-35
2023/09/13 08:27:05;;;;;;;17.30;15.60;;;;;;;;;;110043;269;39790;-36
2023/09/13 08:29:39;;;;;;;16.40;14.80;;;;;;;;;;110198;262;42424;-36
2023/09/13 08:32:13;;;;;;;16.90;15.20;;;;;;;;;;110089;269;41830;-36
2023/09/13 08:34:47;;;;;;;16.40;14.90;;;;;;;;;;110094;262;45118;-37
2023/09/13 08:37:21;;;;;;;16.10;14.50;;;;;;;;;;110146;265;39570;-35
2023/09/13 08:39:55;;;;;;;16.10;14.40;;;;;;;;;;110167;269;42770;-35
2023/09/13 08:42:30;;;;;;;15.50;14.00;;;;;;;;;;110080;265;41979;-35
2023/09/13 08:45:04;;;;;;;15.90;14.40;;;;;;;;;;110089;262;44386;-36
2023/09/13 08:47:42;;;;;;;15.60;14.10;;;;;;;;;;110167;269;39310;-35
2023/09/13 08:50:34;;;;;;;15.30;13.80;;;;;;;;;;110104;262;42665;-35
2023/09/13 08:53:10;;;;;;;16.20;14.60;;;;;;;;;;109819;267;42032;-36
2023/09/13 08:55:46;;;;;;;15.60;14.10;;;;;;;;;;108730;270;169069;-36
2023/09/13 08:58:22;;;;;;;14.90;13.40;;;;;;;;;;109319;269;39645;-36
2023/09/13 09:00:59;;;;;;;15.60;14.10;;;;;;;;;;109730;274;42746;-36
2023/09/13 09:03:34;;;;;;;15.00;13.50;;;;;;;;;;109105;274;43209;-36
2023/09/13 09:06:17;;;;;;;15.00;13.60;;;;;;;;;;109415;272;38475;-35
2023/09/13 09:08:52;;;;;;;15.50;14.10;;;;;;;;;;109418;267;39657;-37
2023/09/13 09:11:28;;;;;;;14.70;13.00;;;;;;;;;;109681;275;42720;-39
2023/09/13 09:14:04;;;;;;;14.80;13.40;;;;;;;;;;109599;274;42085;-37
2023/09/13 09:16:40;;;;;;;14.40;12.90;;;;;;;;;;109554;274;175419;-36
2023/09/13 09:19:14;;;;;;;13.90;12.60;;;;;;;;;;109690;267;39385;-36
2023/09/13 09:21:47;;;;;;;14.10;12.70;;;;;;;;;;109106;275;42754;-43
2023/09/13 09:24:25;;;;;;;14.70;13.20;;;;;;;;;;109382;267;42049;-38
2023/09/13 09:26:59;;;;;;;13.30;12.00;;;;;;;;;;109763;271;38632;-38
2023/09/13 09:29:40;;;;;;;14.20;12.70;;;;;;;;;;109020;269;39614;-38
2023/09/13 09:32:15;;;;;;;14.00;12.60;;;;;;;;;;109553;267;42927;-35
2023/09/13 09:34:54;;;;;;;13.80;12.50;;;;;;;;;;109322;272;41799;-35
2023/09/13 09:37:34;;;;;;;13.70;12.40;;;;;;;;;;109433;275;38610;-38
2023/09/13 09:40:14;;;;;;;13.50;12.30;;;;;;;;;;109459;267;39336;-39
2023/09/13 09:42:56;;;;;;;13.10;11.90;;;;;;;;;;109534;272;42535;-44
2023/09/13 09:45:30;;;;;;;13.50;12.20;;;;;;;;;;109350;267;42091;-37
2023/09/13 09:48:05;;;;;;;13.80;12.30;;;;;;;;;;109206;271;38472;-36
2023/09/13 09:50:40;;;;;;;14.00;12.70;;;;;;;;;;109340;275;39615;-35
2023/09/13 09:53:16;;;;;;;13.30;12.10;;;;;;;;;;109418;275;44967;-35
2023/09/13 09:55:52;;;;;;;13.60;12.10;;;;;;;;;;109059;275;41786;-38
2023/09/13 09:58:29;;;;;;;13.30;12.00;;;;;;;;;;109229;267;38765;-36
2023/09/13 10:01:05;;;;;;;13.30;12.00;;;;;;;;;;109386;267;39309;-35
2023/09/13 10:03:41;;;;;;;13.80;12.40;;;;;;;;;;109400;275;42786;-34
2023/09/13 10:06:16;;;;;;;13.60;12.30;;;;;;;;;;109461;274;43205;-35
2023/09/13 10:08:53;;;;;;;13.80;12.50;;;;;;;;;;109369;267;38743;-37
2023/09/13 10:11:28;;;;;;;13.50;11.80;;;;;;;;;;109383;274;39491;-37
2023/09/13 10:14:01;;;;;;;13.10;11.90;;;;;;;;;;109333;272;42464;-37
2023/09/13 10:16:36;;;;;;;13.20;11.90;;;;;;;;;;109341;267;41840;-37
2023/09/13 10:19:13;;;;;;;12.40;11.20;;;;;;;;;;109423;274;38919;-37
2023/09/13 10:21:46;;;;;;;12.80;11.60;;;;;;;;;;109357;268;39415;-38
2023/09/13 10:24:24;;;;;;;12.50;11.30;;;;;;;;;;109429;272;42672;-39
2023/09/13 10:26:59;;;;;;;12.50;11.40;;;;;;;;;;109473;267;47795;-37
2023/09/13 10:29:35;;;;;;;11.80;10.60;;;;;;;;;;109155;273;174998;-38
2023/09/13 10:32:14;;;;;;;12.50;11.40;;;;;;;;;;109502;267;39289;-37
2023/09/13 10:34:58;;;;;;;12.70;11.50;;;;;;;;;;109295;274;43873;-37
2023/09/13 10:37:43;;;;;;;12.40;11.20;;;;;;;;;;109375;267;49550;-37
2023/09/13 10:40:25;;;;;;;12.20;11.10;;;;;;;;;;109090;275;38488;-38
2023/09/13 10:42:58;;;;;;;12.00;10.90;;;;;;;;;;109370;274;39310;-37
2023/09/13 10:45:34;;;;;;;12.20;11.10;;;;;;;;;;109386;274;42450;-35
2023/09/13 10:48:10;;;;;;;12.40;11.20;;;;;;;;;;109435;275;42037;-37
2023/09/13 10:50:43;;;;;;;11.90;10.80;;;;;;;;;;109442;267;38510;-35
2023/09/13 10:53:18;;;;;;;12.50;11.30;;;;;;;;;;109144;267;39678;-45
2023/09/13 10:55:53;;;;;;;12.30;11.10;;;;;;;;;;108899;269;42741;-36
2023/09/13 10:58:32;;;;;;;12.00;10.80;;;;;;;;;;109278;267;41953;-37
2023/09/13 11:01:07;;;;;;;11.80;10.60;;;;;;;;;;109205;267;38463;-37
2023/09/13 11:03:43;;;;;;;11.90;10.60;;;;;;;;;;109175;267;39458;-37
2023/09/13 11:06:22;;;;;;;12.40;11.30;;;;;;;;;;109101;269;42609;-37
2023/09/13 11:09:13;;;;;;;12.20;11.00;;;;;;;;;;109131;267;44304;-36
2023/09/13 11:11:52;;;;;;;12.00;10.80;;;;;;;;;;109205;272;38402;-36
2023/09/13 11:14:29;;;;;;;11.60;10.40;;;;;;;;;;110859;275;40807;-36
2023/09/13 11:17:38;;;;;;;12.50;11.30;;;;;;;;;;109185;275;42516;-36
2023/09/13 11:20:35;;;;;;;12.60;11.40;;;;;;;;;;110815;275;41979;-36
2023/09/13 11:23:10;;;;;;;12.30;11.00;;;;;;;;;;108711;272;893288;-36
2023/09/13 11:25:52;;;;;;;12.00;10.90;;;;;;;;;;109190;272;39302;-37
2023/09/13 11:28:48;;;;;;;12.30;11.00;;;;;;;;;;109289;268;48211;-35
2023/09/13 11:31:24;;;;;;;11.70;10.60;;;;;;;;;;109254;275;42081;-38
2023/09/13 11:34:00;;;;;;;12.40;11.20;;;;;;;;;;109332;268;39959;-38
2023/09/13 11:36:33;;;;;;;12.20;11.00;;;;;;;;;;109322;275;39424;-37
2023/09/13 11:39:11;;;;;;;11.80;10.60;;;;;;;;;;109383;272;50336;-37
2023/09/13 11:41:48;;;;;;;12.20;11.10;;;;;;;;;;109331;267;42283;-37
2023/09/13 11:44:28;;;;;;;11.50;10.30;;;;;;;;;;109350;275;38669;-36
2023/09/13 11:47:06;;;;;;;12.10;11.00;;;;;;;;;;109291;275;39629;-37
2023/09/13 11:49:43;;;;;;;11.70;10.60;;;;;;;;;;109193;275;42432;-37
2023/09/13 11:53:04;;;;;;;11.90;10.70;;;;;;;;;;109169;275;42071;-36
2023/09/13 11:55:45;;;;;;;12.20;11.10;;;;;;;;;;109064;269;38690;-38
2023/09/13 11:58:41;;;;;;;12.30;11.10;;;;;;;;;;109041;269;39329;-36
2023/09/13 12:01:31;;;;;;;12.50;11.00;;;;;;;;;;109092;276;42948;-36
2023/09/13 12:04:08;;;;;;;12.00;10.90;;;;;;;;;;109084;267;43325;-38
2023/09/13 12:06:48;;;;;;;12.40;11.20;;;;;;;;;;109104;268;38869;-39
2023/09/13 12:09:26;;;;;;;11.70;10.60;;;;;;;;;;109336;267;39282;-38
2023/09/13 12:12:05;;;;;;;12.30;11.20;;;;;;;;;;109438;273;42780;-38
2023/09/13 12:14:43;;;;;;;11.70;10.50;;;;;;;;;;109404;265;42146;-35
2023/09/13 12:17:19;;;;;;;11.80;10.70;;;;;;;;;;109388;266;38784;-36
2023/09/13 12:19:58;;;;;;;11.80;10.70;;;;;;;;;;109421;273;39603;-35
2023/09/13 12:22:32;;;;;;;11.80;10.70;;;;;;;;;;109347;266;42685;-36
2023/09/13 12:25:09;;;;;;;11.90;10.70;;;;;;;;;;109331;273;42001;-39
2023/09/13 12:27:45;;;;;;;12.00;10.90;;;;;;;;;;109291;266;38464;-36
2023/09/13 12:30:23;;;;;;;12.10;11.00;;;;;;;;;;109191;273;175370;-36
2023/09/13 12:33:00;;;;;;;12.40;11.20;;;;;;;;;;109361;269;43960;-36
2023/09/13 12:35:34;;;;;;;12.10;11.00;;;;;;;;;;109333;266;42129;-38
2023/09/13 12:38:08;;;;;;;12.30;11.10;;;;;;;;;;109254;274;40014;-37
2023/09/13 12:40:41;;;;;;;12.80;11.60;;;;;;;;;;109300;270;39577;-36
2023/09/13 12:43:16;;;;;;;12.60;11.50;;;;;;;;;;109427;270;42824;-36
2023/09/13 12:45:53;;;;;;;12.30;11.20;;;;;;;;;;109311;266;42127;-36
2023/09/13 12:48:27;;;;;;;12.10;11.00;;;;;;;;;;109317;273;38685;-36
2023/09/13 12:51:02;;;;;;;12.20;11.10;;;;;;;;;;109461;269;39750;-36
2023/09/13 12:53:37;;;;;;;12.30;11.00;;;;;;;;;;109390;270;42767;-37
2023/09/13 12:56:14;;;;;;;12.40;11.30;;;;;;;;;;109380;273;41793;-36
2023/09/13 12:58:54;;;;;;;12.40;11.30;;;;;;;;;;109597;265;39999;-36
2023/09/13 13:01:35;;;;;;;12.40;11.20;;;;;;;;;;109434;269;39635;-35
2023/09/13 13:04:11;;;;;;;12.00;10.90;;;;;;;;;;109452;273;42596;-36
2023/09/13 13:07:02;;;;;;;12.00;10.90;;;;;;;;;;109514;265;43363;-36
2023/09/13 13:09:36;;;;;;;12.10;11.00;;;;;;;;;;109322;270;39970;-35
2023/09/13 13:12:18;;;;;;;12.30;11.20;;;;;;;;;;109379;265;39992;-35
2023/09/13 13:14:54;;;;;;;12.10;11.00;;;;;;;;;;109343;270;195705;-37
2023/09/13 13:17:37;;;;;;;11.80;10.70;;;;;;;;;;109310;270;42085;-36
2023/09/13 13:20:13;;;;;;;12.40;11.30;;;;;;;;;;109312;266;38486;-36
2023/09/13 13:23:00;;;;;;;12.30;11.20;;;;;;;;;;109495;265;39665;-35
2023/09/13 13:25:33;;;;;;;12.10;11.00;;;;;;;;;;109306;274;42758;-36
2023/09/13 13:28:07;;;;;;;11.90;10.80;;;;;;;;;;109353;273;41828;-36
2023/09/13 13:30:43;;;;;;;12.00;10.80;;;;;;;;;;109342;273;38700;-36
2023/09/13 13:33:16;;;;;;;12.00;10.80;;;;;;;;;;109418;270;40650;-34
2023/09/13 13:35:50;;;;;;;12.00;10.90;;;;;;;;;;109387;266;42910;-35
2023/09/13 13:38:28;;;;;;;11.20;10.20;;;;;;;;;;109403;270;41920;-37
2023/09/13 13:41:17;;;;;;;11.50;10.40;;;;;;;;;;109445;271;38753;-36
2023/09/13 13:43:52;;;;;;;11.60;10.50;;;;;;;;;;109341;266;40014;-35
2023/09/13 13:46:25;;;;;;;11.80;10.60;;;;;;;;;;109352;266;44056;-36
2023/09/13 13:48:59;;;;;;;11.60;10.50;;;;;;;;;;109376;273;43438;-36
2023/09/13 13:51:33;;;;;;;11.40;10.30;;;;;;;;;;109465;265;44470;-36
2023/09/13 13:54:08;;;;;;;12.20;11.00;;;;;;;;;;109345;270;40623;-36
2023/09/13 13:56:42;;;;;;;11.60;10.50;;;;;;;;;;109438;269;43010;-37
2023/09/13 13:59:17;;;;;;;11.50;10.30;;;;;;;;;;109364;273;41947;-37
2023/09/13 14:01:55;;;;;;;11.50;10.40;;;;;;;;;;109488;274;45263;-36
2023/09/13 14:04:30;;;;;;;11.40;10.30;;;;;;;;;;109438;265;40654;-37
2023/09/13 14:07:04;;;;;;;11.50;10.40;;;;;;;;;;109356;273;42928;-37
2023/09/13 14:09:38;;;;;;;11.20;10.20;;;;;;;;;;109401;265;41873;-38
2023/09/13 14:12:12;;;;;;;11.30;10.20;;;;;;;;;;109409;273;46817;-39
2023/09/13 14:14:45;;;;;;;11.80;10.70;;;;;;;;;;109583;267;39719;-39
2023/09/13 14:17:19;;;;;;;11.30;10.30;;;;;;;;;;109360;273;42785;-39
2023/09/13 14:19:52;;;;;;;11.10;10.10;;;;;;;;;;109451;265;41855;-39
2023/09/13 14:22:25;;;;;;;11.10;10.10;;;;;;;;;;109345;270;44604;-39
2023/09/13 14:25:00;;;;;;;11.40;10.30;;;;;;;;;;109423;273;39926;-39
2023/09/13 14:27:34;;;;;;;11.30;10.20;;;;;;;;;;109396;273;42875;-39
2023/09/13 14:30:26;;;;;;;10.70;9.70;;;;;;;;;;109411;273;42240;-40
2023/09/13 14:32:59;;;;;;;11.40;10.30;;;;;;;;;;109315;273;38697;-39
2023/09/13 14:35:35;;;;;;;11.20;10.10;;;;;;;;;;109339;266;39998;-39
2023/09/13 14:38:14;;;;;;;10.70;9.80;;;;;;;;;;109269;273;175320;-39
2023/09/13 14:40:49;;;;;;;11.00;10.00;;;;;;;;;;109384;273;42051;-39
2023/09/13 14:43:22;;;;;;;10.90;9.90;;;;;;;;;;109381;273;38696;-39
2023/09/13 14:45:57;;;;;;;10.90;9.90;;;;;;;;;;109454;269;40848;-39
2023/09/13 14:48:31;;;;;;;11.20;10.20;;;;;;;;;;109293;266;44024;-39
2023/09/13 14:51:05;;;;;;;10.80;9.80;;;;;;;;;;109337;266;42084;-39
2023/09/13 14:53:39;;;;;;;11.40;10.30;;;;;;;;;;109339;270;38764;-39
2023/09/13 14:56:12;;;;;;;11.60;10.60;;;;;;;;;;109363;269;39763;-39
2023/09/13 14:58:45;;;;;;;11.30;10.20;;;;;;;;;;109471;269;43979;-39
2023/09/13 15:01:21;;;;;;;11.30;10.20;;;;;;;;;;109396;273;42060;-39
2023/09/13 15:03:54;;;;;;;11.20;10.20;;;;;;;;;;109361;273;38816;-39
2023/09/13 15:06:29;;;;;;;11.20;10.20;;;;;;;;;;109341;272;39744;-39
2023/09/13 15:09:03;;;;;;;11.50;10.40;;;;;;;;;;109414;273;42891;-39
2023/09/13 15:11:37;;;;;;;11.30;10.30;;;;;;;;;;109372;265;42077;-39